Latest Weather Observations for Tatura

IDV60801

Issued at 8:02 pm EST Sunday 24 September 2017 (issued every 30 minutes, with the page automatically refreshed every 10 minutes)

About weather observations | Map of weather stations | Latest weather observations for VIC | Other Formats
Station Details ID: 081049 Name: TATURA INST SUSTAINABLE AG Lat: -36.44 Lon: 145.27 Height: 114.0 m
Data from the previous 72 hours. | See also: Recent months at Tatura
Date/Time
EST
Temp
°C
App
Temp
°C
Dew
Point
°C
Rel
Hum
%
Delta-T
°C
Wind Press
QNH
hPa
Press
MSL
hPa
Rain since
9am
mm
Dir  Spd
km/h
Gust
km/h
Spd
kts
Gust
kts
24/08:00pm 12.1 8.4 4.3 59 3.5 NW 13 17 7 9 - - 0.0
24/07:30pm 12.5 8.8 4.2 57 3.8 NW 13 17 7 9 - - 0.0
24/07:00pm 13.1 9.4 4.3 55 4.0 NW 13 15 7 8 - - 0.0
24/06:30pm 14.8 10.2 3.9 48 5.0 WNW 17 22 9 12 - - 0.0
24/06:00pm 16.3 10.7 3.7 43 5.9 WNW 22 30 12 16 - - 0.0
24/05:30pm 17.7 10.8 2.8 37 6.9 WNW 28 41 15 22 - - 0.0
24/05:06pm 18.1 10.7 3.9 39 6.7 WNW 32 50 17 27 - - 0.0
24/05:00pm 18.2 10.5 3.3 37 7.0 WNW 33 46 18 25 - - 0.0
24/04:30pm 18.5 10.7 2.8 35 7.3 WNW 33 44 18 24 - - 0.0
24/04:00pm 18.6 10.1 3.3 36 7.2 NW 37 50 20 27 - - 0.0
24/03:30pm 19.0 11.0 3.6 36 7.3 WNW 35 56 19 30 - - 0.0
24/03:04pm 19.0 12.1 4.7 39 6.9 WNW 30 48 16 26 - - 0.0
24/03:00pm 18.9 11.7 5.0 40 6.8 NW 32 44 17 24 - - 0.0
24/02:55pm 17.8 9.5 4.0 40 6.5 NW 37 56 20 30 - - 0.0
24/02:30pm 19.4 12.2 5.1 39 7.0 NW 32 44 17 24 - - 0.0
24/02:03pm 17.9 10.3 3.0 37 6.9 WNW 32 50 17 27 - - 0.0
24/02:00pm 18.0 10.8 4.9 42 6.3 WNW 32 46 17 25 - - 0.0
24/01:30pm 17.8 10.5 4.4 41 6.4 WNW 32 44 17 24 - - 0.0
24/01:13pm 18.3 10.9 5.2 42 6.4 NW 33 52 18 28 - - 0.0
24/01:00pm 18.6 10.9 5.5 42 6.4 NW 35 50 19 27 - - 0.0
24/12:38pm 18.7 12.0 5.5 42 6.5 WNW 30 48 16 26 - - 0.0
24/12:30pm 18.4 10.9 6.3 45 6.0 NW 35 48 19 26 - - 0.0
24/12:00pm 17.5 9.9 5.8 46 5.7 WNW 35 46 19 25 - - 0.0
24/11:30am 17.1 10.4 5.4 46 5.7 WNW 30 43 16 23 - - 0.0
24/11:00am 17.2 10.0 5.8 47 5.6 WNW 33 50 18 27 - - 0.0
24/10:30am 16.7 9.9 7.1 53 4.8 NW 32 50 17 27 - - 0.0
24/10:28am 16.7 9.9 7.1 53 4.8 NW 32 50 17 27 - - 0.0
24/10:00am 16.1 8.9 7.8 58 4.2 WNW 35 46 19 25 - - 0.0
24/09:49am 16.1 9.7 8.6 61 3.8 WNW 32 50 17 27 - - 0.0
24/09:30am 14.6 8.1 8.1 65 3.3 NW 32 44 17 24 - - 0.0
24/09:00am 13.9 9.4 8.5 70 2.7 NW 22 32 12 17 - - 0.0
24/08:30am 13.0 9.0 8.9 76 2.1 NNW 20 28 11 15 - - 0.0
24/08:00am 12.3 8.5 9.1 81 1.6 NNW 19 26 10 14 - - 0.0
24/07:30am 10.0 6.8 8.4 90 0.8 N 15 20 8 11 - - 0.0
24/07:00am 8.4 5.7 7.2 92 0.6 N 11 15 6 8 - - 0.0
24/06:30am 8.3 5.2 7.2 93 0.5 NNE 13 17 7 9 - - 0.0
24/06:00am 7.9 5.0 6.7 92 0.6 N 11 13 6 7 - - 0.0
24/05:30am 9.1 6.1 7.9 92 0.6 NNE 13 19 7 10 - - 0.0
24/05:00am 9.2 6.2 7.8 91 0.7 NNW 13 15 7 8 - - 0.0
24/04:30am 9.2 6.3 8.0 92 0.6 NNW 13 19 7 10 - - 0.0
24/04:00am 8.6 5.9 7.5 93 0.5 N 11 15 6 8 - - 0.0
24/03:30am 8.8 6.2 7.6 92 0.6 N 11 15 6 8 - - 0.0
24/03:00am 9.0 6.0 7.6 91 0.7 NNW 13 15 7 8 - - 0.0
24/02:30am 9.5 6.5 7.8 89 0.8 NNW 13 17 7 9 - - 0.0
24/02:00am 9.5 7.2 7.3 86 1.0 NW 9 13 5 7 - - 0.0
24/01:30am 10.0 7.3 7.4 84 1.2 NW 11 13 6 7 - - 0.0
24/01:00am 11.0 7.9 7.3 78 1.8 NW 13 17 7 9 - - 0.0
24/12:30am 12.1 8.2 7.2 72 2.4 WNW 17 20 9 11 - - 0.0
24/12:00am 13.0 9.5 7.0 67 2.9 WNW 15 20 8 11 - - 0.0
 
Date/Time
EST
Temp
°C
App
Temp
°C
Dew
Point
°C
Rel
Hum
%
Delta-T
°C
Wind Press
QNH
hPa
Press
MSL
hPa
Rain since
9am
mm
Dir  Spd
km/h
Gust
km/h
Spd
kts
Gust
kts
23/11:30pm 14.4 10.0 6.7 60 3.8 W 19 28 10 15 - - 0.0
23/11:00pm 15.2 10.3 6.7 57 4.2 W 22 32 12 17 - - 0.0
23/10:30pm 15.7 10.8 6.7 55 4.4 W 22 32 12 17 - - 0.0
23/10:00pm 16.3 11.9 6.7 53 4.7 W 19 24 10 13 - - 0.0
23/09:30pm 17.5 12.2 6.7 49 5.4 WSW 24 32 13 17 - - 0.0
23/09:00pm 18.5 12.9 7.0 47 5.8 WSW 26 43 14 23 - - 0.0
23/08:30pm 19.3 14.3 6.4 43 6.5 WSW 22 33 12 18 - - 0.0
23/08:00pm 20.1 14.6 5.7 39 7.2 WSW 24 32 13 17 - - 0.0
23/07:30pm 21.4 13.3 5.3 35 8.0 WSW 37 63 20 34 - - 0.0
23/07:00pm 22.5 15.0 7.9 39 7.7 WSW 37 56 20 30 - - 0.0
23/06:40pm 23.6 16.1 8.1 37 8.2 W 37 56 20 30 - - 0.0
23/06:30pm 24.2 16.2 7.4 34 8.9 W 39 54 21 29 - - 0.0
23/06:10pm 25.3 18.5 7.0 31 9.6 W 32 50 17 27 - - 0.0
23/06:00pm 25.8 18.5 7.4 31 9.8 W 35 48 19 26 - - 0.0
23/05:30pm 26.8 21.1 8.3 31 10.0 W 28 41 15 22 - - 0.0
23/05:00pm 27.8 20.9 7.1 27 11.1 W 33 48 18 26 - - 0.0
23/04:30pm 29.1 21.9 5.9 23 12.3 W 33 44 18 24 - - 0.0
23/04:00pm 30.9 21.5 4.6 19 13.7 W 43 67 23 36 - - 0.0
23/03:30pm 33.3 22.9 4.1 16 15.3 WNW 48 70 26 38 - - 0.0
23/03:20pm 33.5 24.5 2.4 14 15.9 WNW 39 69 21 37 - - 0.0
23/03:09pm 32.6 26.5 6.7 20 14.1 WNW 28 48 15 26 - - 0.0
23/03:00pm 30.9 26.6 8.0 24 12.6 NW 20 37 11 20 - - 0.0
23/02:30pm 30.5 25.6 7.0 23 12.7 N 22 32 12 17 - - 0.0
23/02:00pm 31.9 25.5 6.9 21 13.6 N 30 43 16 23 - - 0.0
23/01:30pm 29.5 24.3 7.4 25 12.0 N 24 32 13 17 - - 0.0
23/01:00pm 29.7 24.3 6.4 23 12.4 N 24 33 13 18 - - 0.0
23/12:30pm 28.5 23.0 7.7 27 11.3 NNE 26 35 14 19 - - 0.0
23/12:00pm 28.5 22.9 7.1 26 11.5 NNE 26 39 14 21 - - 0.0
23/11:30am 26.5 21.5 6.5 28 10.5 NNE 22 33 12 18 - - 0.0
23/11:00am 24.7 18.4 5.5 29 9.8 NE 28 39 15 21 - - 0.0
23/10:30am 22.7 16.0 3.8 29 9.2 NE 28 39 15 21 - - 0.0
23/10:00am 21.2 15.5 4.7 34 8.1 NE 24 35 13 19 - - 0.0
23/09:30am 21.2 16.5 5.1 35 8.0 NE 19 28 10 15 - - 0.0
23/09:00am 19.4 14.0 2.7 33 7.8 NE 20 30 11 16 - - 0.0
23/08:30am 18.0 12.1 1.9 34 7.3 ENE 22 32 12 17 - - 0.0
23/08:00am 16.4 10.4 1.3 36 6.7 ENE 22 32 12 17 - - 0.0
23/07:30am 14.8 9.3 1.7 41 5.8 ENE 20 30 11 16 - - 0.0
23/07:00am 13.2 7.9 1.8 46 5.0 E 19 24 10 13 - - 0.0
23/06:30am 13.2 7.8 1.5 45 5.1 ENE 19 24 10 13 - - 0.0
23/06:00am 12.7 8.1 1.4 46 4.8 ENE 15 22 8 12 - - 0.0
23/05:30am 12.7 7.7 1.4 46 4.8 ENE 17 26 9 14 - - 0.0
23/05:00am 12.2 7.7 2.1 50 4.4 ENE 15 17 8 9 - - 0.0
23/04:30am 12.0 7.6 2.5 52 4.1 E 15 17 8 9 - - 0.0
23/04:00am 12.1 8.5 2.8 53 4.1 ENE 11 17 6 9 - - 0.0
23/03:30am 12.3 8.4 3.3 54 4.0 E 13 17 7 9 - - 0.0
23/03:00am 13.1 9.1 2.9 50 4.5 E 13 17 7 9 - - 0.0
23/02:30am 13.2 9.4 3.8 53 4.3 E 13 17 7 9 - - 0.0
23/02:00am 13.5 10.1 4.1 53 4.3 ENE 11 15 6 8 - - 0.0
23/01:30am 14.2 11.0 5.3 55 4.2 ENE 11 17 6 9 - - 0.0
23/01:00am 14.2 11.6 6.3 59 3.8 E 9 11 5 6 - - 0.0
23/12:30am 14.4 11.5 6.7 60 3.8 ENE 11 15 6 8 - - 0.0
23/12:00am 14.1 11.7 6.9 62 3.5 ENE 9 13 5 7 - - 0.0
 
Date/Time
EST
Temp
°C
App
Temp
°C
Dew
Point
°C
Rel
Hum
%
Delta-T
°C
Wind Press
QNH
hPa
Press
MSL
hPa
Rain since
9am
mm
Dir  Spd
km/h
Gust
km/h
Spd
kts
Gust
kts
22/11:30pm 14.5 11.7 7.1 61 3.6 E 11 13 6 7 - - 0.0
22/11:00pm 15.8 13.0 6.8 55 4.4 E 11 15 6 8 - - 0.0
22/10:30pm 16.2 13.1 7.2 55 4.5 E 13 19 7 10 - - 0.0
22/10:00pm 16.2 13.5 7.2 55 4.5 E 11 17 6 9 - - 0.0
22/09:30pm 16.4 13.4 7.6 56 4.4 E 13 17 7 9 - - 0.0
22/09:00pm 17.0 13.6 7.6 54 4.8 E 15 19 8 10 - - 0.0
22/08:30pm 16.9 13.9 7.8 55 4.6 E 13 19 7 10 - - 0.0
22/08:00pm 17.6 14.8 8.5 55 4.7 E 13 17 7 9 - - 0.0
22/07:30pm 17.6 14.9 9.0 57 4.5 E 13 15 7 8 - - 0.0
22/07:00pm 18.2 16.4 9.3 56 4.7 ESE 9 13 5 7 - - 0.0
22/06:30pm 19.4 17.9 9.3 52 5.4 ESE 7 13 4 7 - - 0.0
22/06:00pm 20.8 19.4 9.4 48 6.1 ESE 7 9 4 5 - - 0.0
22/05:30pm 21.7 19.9 9.6 46 6.5 ESE 9 13 5 7 - - 0.0
22/05:00pm 22.8 20.4 9.9 44 7.1 E 13 19 7 10 - - 0.0
22/04:30pm 23.5 20.9 9.5 41 7.6 E 13 19 7 10 - - 0.0
22/04:00pm 23.8 21.1 9.0 39 8.0 E 13 20 7 11 - - 0.0
22/03:30pm 23.7 20.7 7.8 36 8.4 E 13 19 7 10 - - 0.0
22/03:00pm 23.2 20.1 7.3 36 8.3 NE 13 15 7 8 - - 0.0
22/02:30pm 23.7 20.5 6.9 34 8.7 NE 13 20 7 11 - - 0.0
22/02:00pm 23.1 20.0 7.2 36 8.3 ENE 13 19 7 10 - - 0.0
22/01:30pm 21.8 19.1 7.2 39 7.6 NE 11 17 6 9 - - 0.0
22/01:00pm 21.6 18.9 7.4 40 7.4 ENE 11 19 6 10 - - 0.0
22/12:30pm 21.6 17.9 6.3 37 7.8 NE 15 20 8 11 - - 0.0
22/12:00pm 21.9 18.6 6.2 36 8.0 NE 13 20 7 11 - - 0.0
22/11:30am 20.3 17.2 5.5 38 7.3 ENE 11 19 6 10 - - 0.0
22/11:00am 19.5 15.7 4.0 36 7.4 ENE 13 17 7 9 - - 0.0
22/10:30am 17.9 13.9 2.6 36 7.0 NE 13 17 7 9 - - 0.0
22/10:00am 16.6 12.8 3.7 42 6.0 NE 13 19 7 10 - - 0.0
22/09:30am 15.5 11.6 3.6 45 5.5 NE 13 17 7 9 - - 0.0
22/09:00am 14.6 11.2 4.0 49 4.9 NE 11 15 6 8 - - 0.0
22/08:30am 13.0 9.6 3.9 54 4.1 NE 11 17 6 9 - - 0.0
22/08:00am 11.6 8.3 4.8 63 3.1 ENE 11 13 6 7 - - 0.0
22/07:30am 10.0 6.3 4.4 68 2.5 ENE 13 15 7 8 - - 0.0
22/07:00am 8.7 5.4 4.5 75 1.9 ENE 11 13 6 7 - - 0.0
22/06:30am 6.2 4.1 3.7 84 1.1 ESE 4 7 2 4 - - 0.0
22/06:00am 6.1 3.4 3.8 85 1.0 SSE 7 9 4 5 - - 0.0
22/05:30am 6.3 3.8 3.8 84 1.1 ENE 6 11 3 6 - - 0.0
22/05:00am 6.5 4.9 4.7 88 0.8 ENE 2 9 1 5 - - 0.0
22/04:30am 6.2 4.8 3.7 84 1.1 CALM 0 0 0 0 - - 0.0
22/04:00am 7.0 4.4 4.0 81 1.3 ESE 7 9 4 5 - - 0.0
22/03:30am 7.6 5.1 4.7 82 1.3 ESE 7 9 4 5 - - 0.0
22/03:00am 8.6 6.2 5.4 80 1.4 E 7 11 4 6 - - 0.0
22/02:30am 8.4 6.1 5.0 79 1.5 E 6 7 3 4 - - 0.0
22/02:00am 8.5 6.3 5.3 80 1.4 E 6 7 3 4 - - 0.0
22/01:30am 9.4 7.3 5.9 79 1.6 E 6 9 3 5 - - 0.0
22/01:00am 9.8 6.8 6.2 78 1.7 E 11 11 6 6 - - 0.0
22/12:30am 9.0 7.3 6.1 82 1.3 W 4 7 2 4 - - 0.0
22/12:00am 10.7 9.3 5.7 71 2.3 SSE 2 9 1 5 - - 0.0
 
Date/Time
EST
Temp
°C
App
Temp
°C
Dew
Point
°C
Rel
Hum
%
Delta-T
°C
Wind Press
QNH
hPa
Press
MSL
hPa
Rain since
9am
mm
Dir  Spd
km/h
Gust
km/h
Spd
kts
Gust
kts
21/11:30pm 12.2 9.2 5.8 65 3.0 ENE 11 13 6 7 - - 0.0
21/11:00pm 12.8 10.3 6.4 65 3.1 ENE 9 11 5 6 - - 0.0
21/10:30pm 13.5 11.0 6.6 63 3.3 ENE 9 11 5 6 - - 0.0
21/10:00pm 14.3 11.6 7.4 63 3.4 ENE 11 15 6 8 - - 0.0
21/09:30pm 14.9 11.5 7.5 61 3.7 ENE 15 19 8 10 - - 0.0
21/09:00pm 15.1 12.0 7.4 60 3.8 ENE 13 17 7 9 - - 0.0
21/08:30pm 15.4 12.3 7.2 58 4.1 ENE 13 17 7 9 - - 0.0

Other Formats:

Comma delimited format used in spreadsheet applications
http://www.bom.gov.au/fwo/IDV60801/IDV60801.95836.axf

JavaScript Object Notation format (JSON) in row-major order
http://www.bom.gov.au/fwo/IDV60801/IDV60801.95836.json